sensor_id;sensor_type;location;lat;lon;timestamp;temperature;humidity
41928;DHT22;27616;51.420;6.788;2023-07-31T00:00:06;16.30;99.90
41928;DHT22;27616;51.420;6.788;2023-07-31T00:02:31;16.40;99.90
41928;DHT22;27616;51.420;6.788;2023-07-31T00:04:57;16.40;99.90
41928;DHT22;27616;51.420;6.788;2023-07-31T00:07:23;16.40;99.90
41928;DHT22;27616;51.420;6.788;2023-07-31T00:09:48;16.40;99.90
41928;DHT22;27616;51.420;6.788;2023-07-31T00:12:14;16.40;99.90
41928;DHT22;27616;51.420;6.788;2023-07-31T00:14:39;16.40;99.90
41928;DHT22;27616;51.420;6.788;2023-07-31T00:17:05;16.40;99.90
41928;DHT22;27616;51.420;6.788;2023-07-31T00:19:31;16.40;99.90
41928;DHT22;27616;51.420;6.788;2023-07-31T00:21:56;16.50;99.90
41928;DHT22;27616;51.420;6.788;2023-07-31T00:24:22;16.50;99.90
41928;DHT22;27616;51.420;6.788;2023-07-31T00:26:47;16.50;99.90
41928;DHT22;27616;51.420;6.788;2023-07-31T00:29:13;16.40;99.90
41928;DHT22;27616;51.420;6.788;2023-07-31T00:31:38;16.50;99.90
41928;DHT22;27616;51.420;6.788;2023-07-31T00:34:04;16.50;99.90
41928;DHT22;27616;51.420;6.788;2023-07-31T00:36:30;16.50;99.90
41928;DHT22;27616;51.420;6.788;2023-07-31T00:38:55;16.50;99.90
41928;DHT22;27616;51.420;6.788;2023-07-31T00:41:21;16.50;99.90
41928;DHT22;27616;51.420;6.788;2023-07-31T00:43:48;16.50;99.90
41928;DHT22;27616;51.420;6.788;2023-07-31T00:46:13;16.60;99.90
41928;DHT22;27616;51.420;6.788;2023-07-31T00:48:40;16.60;99.90
41928;DHT22;27616;51.420;6.788;2023-07-31T00:51:07;16.50;99.90
41928;DHT22;27616;51.420;6.788;2023-07-31T00:53:34;16.60;99.90
41928;DHT22;27616;51.420;6.788;2023-07-31T00:56:00;16.60;99.90
41928;DHT22;27616;51.420;6.788;2023-07-31T00:58:26;16.60;99.90
41928;DHT22;27616;51.420;6.788;2023-07-31T01:00:52;16.60;99.90
41928;DHT22;27616;51.420;6.788;2023-07-31T01:03:18;16.70;99.90
41928;DHT22;27616;51.420;6.788;2023-07-31T01:08:37;16.70;99.90
41928;DHT22;27616;51.420;6.788;2023-07-31T01:11:19;16.70;99.90
41928;DHT22;27616;51.420;6.788;2023-07-31T01:13:47;16.60;99.90
41928;DHT22;27616;51.420;6.788;2023-07-31T01:16:12;16.60;99.90
41928;DHT22;27616;51.420;6.788;2023-07-31T01:18:38;16.70;99.90
41928;DHT22;27616;51.420;6.788;2023-07-31T01:24:22;16.70;99.90
41928;DHT22;27616;51.420;6.788;2023-07-31T01:29:47;16.70;99.90
41928;DHT22;27616;51.420;6.788;2023-07-31T01:32:14;16.70;99.90
41928;DHT22;27616;51.420;6.788;2023-07-31T01:34:44;16.70;99.90
41928;DHT22;27616;51.420;6.788;2023-07-31T01:37:11;16.70;99.90
41928;DHT22;27616;51.420;6.788;2023-07-31T01:39:36;16.70;99.90
41928;DHT22;27616;51.420;6.788;2023-07-31T01:42:03;16.70;99.90
41928;DHT22;27616;51.420;6.788;2023-07-31T01:44:28;16.70;99.90
41928;DHT22;27616;51.420;6.788;2023-07-31T01:46:54;16.70;99.90
41928;DHT22;27616;51.420;6.788;2023-07-31T01:49:19;16.70;99.90
41928;DHT22;27616;51.420;6.788;2023-07-31T01:51:45;16.70;99.90
41928;DHT22;27616;51.420;6.788;2023-07-31T01:54:11;16.70;99.90
41928;DHT22;27616;51.420;6.788;2023-07-31T01:56:36;16.70;99.90
41928;DHT22;27616;51.420;6.788;2023-07-31T01:59:02;16.70;99.90
41928;DHT22;27616;51.420;6.788;2023-07-31T02:01:28;16.70;99.90
41928;DHT22;27616;51.420;6.788;2023-07-31T02:03:53;16.70;99.90
41928;DHT22;27616;51.420;6.788;2023-07-31T02:06:22;16.70;99.90
41928;DHT22;27616;51.420;6.788;2023-07-31T02:08:48;16.70;99.90
41928;DHT22;27616;51.420;6.788;2023-07-31T02:11:14;16.70;99.90
41928;DHT22;27616;51.420;6.788;2023-07-31T02:13:40;16.80;99.90
41928;DHT22;27616;51.420;6.788;2023-07-31T02:16:05;16.80;99.90
41928;DHT22;27616;51.420;6.788;2023-07-31T02:18:31;16.80;99.90
41928;DHT22;27616;51.420;6.788;2023-07-31T02:20:56;16.80;99.90
41928;DHT22;27616;51.420;6.788;2023-07-31T02:23:22;16.80;99.90
41928;DHT22;27616;51.420;6.788;2023-07-31T02:25:47;16.80;99.90
41928;DHT22;27616;51.420;6.788;2023-07-31T02:28:13;16.80;99.90
41928;DHT22;27616;51.420;6.788;2023-07-31T02:30:39;16.80;99.90
41928;DHT22;27616;51.420;6.788;2023-07-31T02:33:05;16.80;99.90
41928;DHT22;27616;51.420;6.788;2023-07-31T02:35:31;16.80;99.90
41928;DHT22;27616;51.420;6.788;2023-07-31T02:37:56;16.80;99.90
41928;DHT22;27616;51.420;6.788;2023-07-31T02:40:22;16.80;99.90
41928;DHT22;27616;51.420;6.788;2023-07-31T02:42:48;16.80;99.90
41928;DHT22;27616;51.420;6.788;2023-07-31T02:45:14;16.80;99.90
41928;DHT22;27616;51.420;6.788;2023-07-31T02:47:40;16.80;99.90
41928;DHT22;27616;51.420;6.788;2023-07-31T02:50:06;16.90;99.90
41928;DHT22;27616;51.420;6.788;2023-07-31T02:52:32;16.80;99.90
41928;DHT22;27616;51.420;6.788;2023-07-31T02:54:58;16.90;99.90
41928;DHT22;27616;51.420;6.788;2023-07-31T02:57:24;16.90;99.90
41928;DHT22;27616;51.420;6.788;2023-07-31T02:59:49;16.90;99.90
41928;DHT22;27616;51.420;6.788;2023-07-31T03:02:15;16.90;99.90
41928;DHT22;27616;51.420;6.788;2023-07-31T03:04:41;16.90;99.90
41928;DHT22;27616;51.420;6.788;2023-07-31T03:07:06;16.90;99.90
41928;DHT22;27616;51.420;6.788;2023-07-31T03:09:32;16.90;99.90
41928;DHT22;27616;51.420;6.788;2023-07-31T03:11:58;16.90;99.90
41928;DHT22;27616;51.420;6.788;2023-07-31T03:14:23;17.00;99.90
41928;DHT22;27616;51.420;6.788;2023-07-31T03:16:51;16.90;99.90
41928;DHT22;27616;51.420;6.788;2023-07-31T03:19:17;17.00;99.90
41928;DHT22;27616;51.420;6.788;2023-07-31T03:21:43;17.00;99.90
41928;DHT22;27616;51.420;6.788;2023-07-31T03:24:09;17.00;99.90
41928;DHT22;27616;51.420;6.788;2023-07-31T03:26:34;17.00;99.90
41928;DHT22;27616;51.420;6.788;2023-07-31T03:29:02;17.00;99.90
41928;DHT22;27616;51.420;6.788;2023-07-31T03:31:28;17.00;99.90
41928;DHT22;27616;51.420;6.788;2023-07-31T03:33:54;17.10;99.90
41928;DHT22;27616;51.420;6.788;2023-07-31T03:36:19;17.10;99.90
41928;DHT22;27616;51.420;6.788;2023-07-31T03:38:46;17.20;99.90
41928;DHT22;27616;51.420;6.788;2023-07-31T03:41:12;17.20;99.90
41928;DHT22;27616;51.420;6.788;2023-07-31T03:43:37;17.10;99.90
41928;DHT22;27616;51.420;6.788;2023-07-31T03:46:03;17.20;99.90
41928;DHT22;27616;51.420;6.788;2023-07-31T03:48:30;17.20;99.90
41928;DHT22;27616;51.420;6.788;2023-07-31T03:50:55;17.30;99.90
41928;DHT22;27616;51.420;6.788;2023-07-31T03:53:21;17.30;99.90
41928;DHT22;27616;51.420;6.788;2023-07-31T03:55:47;17.30;99.90
41928;DHT22;27616;51.420;6.788;2023-07-31T03:58:12;17.20;99.90
41928;DHT22;27616;51.420;6.788;2023-07-31T04:00:40;17.30;99.90
41928;DHT22;27616;51.420;6.788;2023-07-31T04:03:06;17.30;99.90
41928;DHT22;27616;51.420;6.788;2023-07-31T04:05:32;17.30;99.90
41928;DHT22;27616;51.420;6.788;2023-07-31T04:07:58;17.30;99.90
41928;DHT22;27616;51.420;6.788;2023-07-31T04:10:23;17.30;99.90
41928;DHT22;27616;51.420;6.788;2023-07-31T04:12:49;17.40;99.90
41928;DHT22;27616;51.420;6.788;2023-07-31T04:15:15;17.40;99.90
41928;DHT22;27616;51.420;6.788;2023-07-31T04:17:40;17.40;99.90
41928;DHT22;27616;51.420;6.788;2023-07-31T04:20:06;17.50;99.90
41928;DHT22;27616;51.420;6.788;2023-07-31T04:22:32;17.50;99.90
41928;DHT22;27616;51.420;6.788;2023-07-31T04:24:58;17.40;99.90
41928;DHT22;27616;51.420;6.788;2023-07-31T04:27:23;17.50;99.90
41928;DHT22;27616;51.420;6.788;2023-07-31T04:29:49;17.40;99.90
41928;DHT22;27616;51.420;6.788;2023-07-31T04:32:14;17.50;99.90
41928;DHT22;27616;51.420;6.788;2023-07-31T04:34:43;17.50;99.90
41928;DHT22;27616;51.420;6.788;2023-07-31T04:37:09;17.50;99.90
41928;DHT22;27616;51.420;6.788;2023-07-31T04:39:34;17.60;99.90
41928;DHT22;27616;51.420;6.788;2023-07-31T04:42:00;17.50;99.90
41928;DHT22;27616;51.420;6.788;2023-07-31T04:44:26;17.50;99.90
41928;DHT22;27616;51.420;6.788;2023-07-31T04:46:51;17.50;99.90
41928;DHT22;27616;51.420;6.788;2023-07-31T04:49:17;17.50;99.90
41928;DHT22;27616;51.420;6.788;2023-07-31T04:51:42;17.40;99.90
41928;DHT22;27616;51.420;6.788;2023-07-31T04:54:08;17.50;99.90
41928;DHT22;27616;51.420;6.788;2023-07-31T04:56:34;17.50;99.90
41928;DHT22;27616;51.420;6.788;2023-07-31T04:58:59;17.40;99.90
41928;DHT22;27616;51.420;6.788;2023-07-31T05:01:25;17.40;99.90
41928;DHT22;27616;51.420;6.788;2023-07-31T05:03:51;17.50;99.90
41928;DHT22;27616;51.420;6.788;2023-07-31T05:06:16;17.50;99.90
41928;DHT22;27616;51.420;6.788;2023-07-31T05:08:42;17.50;99.90
41928;DHT22;27616;51.420;6.788;2023-07-31T05:11:07;17.40;99.90
41928;DHT22;27616;51.420;6.788;2023-07-31T05:13:33;17.40;99.90
41928;DHT22;27616;51.420;6.788;2023-07-31T05:15:59;17.40;99.90
41928;DHT22;27616;51.420;6.788;2023-07-31T05:18:24;17.40;99.90
41928;DHT22;27616;51.420;6.788;2023-07-31T05:20:50;17.40;99.90
41928;DHT22;27616;51.420;6.788;2023-07-31T05:23:15;17.50;99.90
41928;DHT22;27616;51.420;6.788;2023-07-31T05:25:41;17.40;99.90
41928;DHT22;27616;51.420;6.788;2023-07-31T05:28:07;17.50;99.90
41928;DHT22;27616;51.420;6.788;2023-07-31T05:30:32;17.50;99.90
41928;DHT22;27616;51.420;6.788;2023-07-31T05:32:58;17.50;99.90
41928;DHT22;27616;51.420;6.788;2023-07-31T05:35:23;17.40;99.90
41928;DHT22;27616;51.420;6.788;2023-07-31T05:37:49;17.40;99.90
41928;DHT22;27616;51.420;6.788;2023-07-31T05:40:15;17.50;99.90
41928;DHT22;27616;51.420;6.788;2023-07-31T05:42:40;17.50;99.90
41928;DHT22;27616;51.420;6.788;2023-07-31T05:45:07;17.50;99.90
41928;DHT22;27616;51.420;6.788;2023-07-31T05:47:33;17.50;99.90
41928;DHT22;27616;51.420;6.788;2023-07-31T05:49:58;17.50;99.90
41928;DHT22;27616;51.420;6.788;2023-07-31T05:52:24;17.50;99.90
41928;DHT22;27616;51.420;6.788;2023-07-31T05:54:50;17.50;99.90
41928;DHT22;27616;51.420;6.788;2023-07-31T05:57:15;17.50;99.90
41928;DHT22;27616;51.420;6.788;2023-07-31T05:59:41;17.50;99.90
41928;DHT22;27616;51.420;6.788;2023-07-31T06:02:07;17.60;99.90
41928;DHT22;27616;51.420;6.788;2023-07-31T06:04:33;17.60;99.90
41928;DHT22;27616;51.420;6.788;2023-07-31T06:06:58;17.60;99.90
41928;DHT22;27616;51.420;6.788;2023-07-31T06:09:24;17.70;99.90
41928;DHT22;27616;51.420;6.788;2023-07-31T06:11:51;17.70;99.90
41928;DHT22;27616;51.420;6.788;2023-07-31T06:14:17;17.70;99.90
41928;DHT22;27616;51.420;6.788;2023-07-31T06:16:42;17.70;99.90
41928;DHT22;27616;51.420;6.788;2023-07-31T06:19:09;17.60;99.90
41928;DHT22;27616;51.420;6.788;2023-07-31T06:21:35;17.60;99.90
41928;DHT22;27616;51.420;6.788;2023-07-31T06:24:03;17.60;99.90
41928;DHT22;27616;51.420;6.788;2023-07-31T06:26:29;17.50;99.90
41928;DHT22;27616;51.420;6.788;2023-07-31T06:28:56;17.50;99.90
41928;DHT22;27616;51.420;6.788;2023-07-31T06:31:21;17.40;99.90
41928;DHT22;27616;51.420;6.788;2023-07-31T06:33:51;17.40;99.90
41928;DHT22;27616;51.420;6.788;2023-07-31T06:36:17;17.40;99.90
41928;DHT22;27616;51.420;6.788;2023-07-31T06:38:43;17.30;99.90
41928;DHT22;27616;51.420;6.788;2023-07-31T06:41:09;17.30;99.90
41928;DHT22;27616;51.420;6.788;2023-07-31T06:43:36;17.30;99.90
41928;DHT22;27616;51.420;6.788;2023-07-31T06:46:09;17.30;99.90
41928;DHT22;27616;51.420;6.788;2023-07-31T06:48:35;17.30;99.90
41928;DHT22;27616;51.420;6.788;2023-07-31T06:51:02;17.30;99.90
41928;DHT22;27616;51.420;6.788;2023-07-31T06:53:28;17.20;99.90
41928;DHT22;27616;51.420;6.788;2023-07-31T06:55:54;17.20;99.90
41928;DHT22;27616;51.420;6.788;2023-07-31T06:58:20;17.20;99.90
41928;DHT22;27616;51.420;6.788;2023-07-31T07:00:45;17.20;99.90
41928;DHT22;27616;51.420;6.788;2023-07-31T07:03:11;17.20;99.90
41928;DHT22;27616;51.420;6.788;2023-07-31T07:05:40;17.10;99.90
41928;DHT22;27616;51.420;6.788;2023-07-31T07:08:05;17.10;99.90
41928;DHT22;27616;51.420;6.788;2023-07-31T07:10:31;17.10;99.90
41928;DHT22;27616;51.420;6.788;2023-07-31T07:12:56;17.10;99.90
41928;DHT22;27616;51.420;6.788;2023-07-31T07:15:22;17.10;99.90
41928;DHT22;27616;51.420;6.788;2023-07-31T07:17:48;17.10;99.90
41928;DHT22;27616;51.420;6.788;2023-07-31T07:20:13;17.00;99.90
41928;DHT22;27616;51.420;6.788;2023-07-31T07:22:39;17.00;99.90
41928;DHT22;27616;51.420;6.788;2023-07-31T07:25:05;17.00;99.90
41928;DHT22;27616;51.420;6.788;2023-07-31T07:27:31;17.00;99.90
41928;DHT22;27616;51.420;6.788;2023-07-31T07:29:56;17.00;99.90
41928;DHT22;27616;51.420;6.788;2023-07-31T07:32:22;17.00;99.90
41928;DHT22;27616;51.420;6.788;2023-07-31T07:34:48;16.90;99.90
41928;DHT22;27616;51.420;6.788;2023-07-31T07:37:14;16.90;99.90
41928;DHT22;27616;51.420;6.788;2023-07-31T07:39:40;16.90;99.90
41928;DHT22;27616;51.420;6.788;2023-07-31T07:42:06;16.90;99.90
41928;DHT22;27616;51.420;6.788;2023-07-31T07:44:31;16.90;99.90
41928;DHT22;27616;51.420;6.788;2023-07-31T07:46:57;16.90;99.90
41928;DHT22;27616;51.420;6.788;2023-07-31T07:49:23;16.90;99.90
41928;DHT22;27616;51.420;6.788;2023-07-31T07:51:49;16.90;99.90
41928;DHT22;27616;51.420;6.788;2023-07-31T07:54:15;16.80;99.90
41928;DHT22;27616;51.420;6.788;2023-07-31T07:56:42;16.80;99.90
41928;DHT22;27616;51.420;6.788;2023-07-31T07:59:08;16.80;99.90
41928;DHT22;27616;51.420;6.788;2023-07-31T08:01:34;16.70;99.90
41928;DHT22;27616;51.420;6.788;2023-07-31T08:04:00;16.70;99.90
41928;DHT22;27616;51.420;6.788;2023-07-31T08:06:25;16.60;99.90
41928;DHT22;27616;51.420;6.788;2023-07-31T08:08:51;16.70;99.90
41928;DHT22;27616;51.420;6.788;2023-07-31T08:11:16;16.70;99.90
41928;DHT22;27616;51.420;6.788;2023-07-31T08:13:42;16.70;99.90
41928;DHT22;27616;51.420;6.788;2023-07-31T08:16:08;16.70;99.90
41928;DHT22;27616;51.420;6.788;2023-07-31T08:18:34;16.70;99.90
41928;DHT22;27616;51.420;6.788;2023-07-31T08:21:01;16.70;99.90
41928;DHT22;27616;51.420;6.788;2023-07-31T08:23:26;16.70;99.90
41928;DHT22;27616;51.420;6.788;2023-07-31T08:25:52;16.60;99.90
41928;DHT22;27616;51.420;6.788;2023-07-31T08:28:17;16.60;99.90
41928;DHT22;27616;51.420;6.788;2023-07-31T08:30:43;16.60;99.90
41928;DHT22;27616;51.420;6.788;2023-07-31T08:33:09;16.60;99.90
41928;DHT22;27616;51.420;6.788;2023-07-31T08:35:34;16.50;99.90
41928;DHT22;27616;51.420;6.788;2023-07-31T08:38:00;16.50;99.90
41928;DHT22;27616;51.420;6.788;2023-07-31T08:40:25;16.60;99.90
41928;DHT22;27616;51.420;6.788;2023-07-31T08:42:54;16.60;99.90
41928;DHT22;27616;51.420;6.788;2023-07-31T08:45:20;16.60;99.90
41928;DHT22;27616;51.420;6.788;2023-07-31T08:47:48;16.60;99.90
41928;DHT22;27616;51.420;6.788;2023-07-31T08:50:15;16.60;99.90
41928;DHT22;27616;51.420;6.788;2023-07-31T08:52:40;16.60;99.90
41928;DHT22;27616;51.420;6.788;2023-07-31T08:55:07;16.60;99.90
41928;DHT22;27616;51.420;6.788;2023-07-31T08:57:35;16.60;99.90
41928;DHT22;27616;51.420;6.788;2023-07-31T09:00:05;16.60;99.90
41928;DHT22;27616;51.420;6.788;2023-07-31T09:03:02;16.60;99.90
41928;DHT22;27616;51.420;6.788;2023-07-31T09:05:30;16.60;99.90
41928;DHT22;27616;51.420;6.788;2023-07-31T09:07:56;16.60;99.90
41928;DHT22;27616;51.420;6.788;2023-07-31T09:10:23;16.60;99.90
41928;DHT22;27616;51.420;6.788;2023-07-31T09:12:50;16.60;99.90
41928;DHT22;27616;51.420;6.788;2023-07-31T09:15:16;16.60;99.90
41928;DHT22;27616;51.420;6.788;2023-07-31T09:17:42;16.60;99.90
41928;DHT22;27616;51.420;6.788;2023-07-31T09:20:19;16.60;99.90
41928;DHT22;27616;51.420;6.788;2023-07-31T09:22:46;16.60;99.90
41928;DHT22;27616;51.420;6.788;2023-07-31T09:25:19;16.60;99.90
41928;DHT22;27616;51.420;6.788;2023-07-31T09:27:48;16.70;99.90
41928;DHT22;27616;51.420;6.788;2023-07-31T09:30:14;16.70;99.90
41928;DHT22;27616;51.420;6.788;2023-07-31T09:32:40;16.70;99.90
41928;DHT22;27616;51.420;6.788;2023-07-31T09:35:32;16.70;99.90
41928;DHT22;27616;51.420;6.788;2023-07-31T09:38:00;16.70;99.90
41928;DHT22;27616;51.420;6.788;2023-07-31T09:40:33;16.80;99.90
41928;DHT22;27616;51.420;6.788;2023-07-31T09:43:00;16.80;99.90
41928;DHT22;27616;51.420;6.788;2023-07-31T09:45:27;16.80;99.90
41928;DHT22;27616;51.420;6.788;2023-07-31T09:47:53;16.90;99.90
41928;DHT22;27616;51.420;6.788;2023-07-31T09:50:23;17.00;99.90
41928;DHT22;27616;51.420;6.788;2023-07-31T09:52:50;16.90;99.90
41928;DHT22;27616;51.420;6.788;2023-07-31T09:55:16;16.90;99.90
41928;DHT22;27616;51.420;6.788;2023-07-31T09:57:44;16.90;99.90
41928;DHT22;27616;51.420;6.788;2023-07-31T10:00:13;16.90;99.90
41928;DHT22;27616;51.420;6.788;2023-07-31T10:02:41;16.90;99.90
41928;DHT22;27616;51.420;6.788;2023-07-31T10:05:07;17.00;99.90
41928;DHT22;27616;51.420;6.788;2023-07-31T10:07:39;17.00;99.90
41928;DHT22;27616;51.420;6.788;2023-07-31T10:10:08;17.00;99.90
41928;DHT22;27616;51.420;6.788;2023-07-31T10:12:36;17.00;99.90
41928;DHT22;27616;51.420;6.788;2023-07-31T10:15:02;17.00;99.90
41928;DHT22;27616;51.420;6.788;2023-07-31T10:17:29;17.00;99.90
41928;DHT22;27616;51.420;6.788;2023-07-31T10:19:58;17.00;99.90
41928;DHT22;27616;51.420;6.788;2023-07-31T10:22:25;17.00;99.90
41928;DHT22;27616;51.420;6.788;2023-07-31T10:24:52;17.00;99.90
41928;DHT22;27616;51.420;6.788;2023-07-31T10:27:20;17.00;99.90
41928;DHT22;27616;51.420;6.788;2023-07-31T10:29:46;17.10;99.90
41928;DHT22;27616;51.420;6.788;2023-07-31T10:32:15;17.10;99.90
41928;DHT22;27616;51.420;6.788;2023-07-31T10:34:42;17.10;99.90
41928;DHT22;27616;51.420;6.788;2023-07-31T10:37:27;17.20;99.90
41928;DHT22;27616;51.420;6.788;2023-07-31T10:42:36;17.40;99.90
41928;DHT22;27616;51.420;6.788;2023-07-31T10:45:09;17.40;99.90
41928;DHT22;27616;51.420;6.788;2023-07-31T10:47:46;17.50;99.90
41928;DHT22;27616;51.420;6.788;2023-07-31T10:50:22;17.50;99.90
41928;DHT22;27616;51.420;6.788;2023-07-31T10:52:55;17.70;99.90
41928;DHT22;27616;51.420;6.788;2023-07-31T10:55:25;17.70;99.90
41928;DHT22;27616;51.420;6.788;2023-07-31T10:57:55;17.80;99.90
41928;DHT22;27616;51.420;6.788;2023-07-31T11:08:31;17.90;99.90
41928;DHT22;27616;51.420;6.788;2023-07-31T11:15:54;17.90;99.90
41928;DHT22;27616;51.420;6.788;2023-07-31T11:18:20;18.00;99.90
41928;DHT22;27616;51.420;6.788;2023-07-31T11:20:46;18.00;99.90
41928;DHT22;27616;51.420;6.788;2023-07-31T11:23:12;18.10;99.90
41928;DHT22;27616;51.420;6.788;2023-07-31T11:25:39;18.10;99.90
41928;DHT22;27616;51.420;6.788;2023-07-31T11:28:18;18.10;99.90
41928;DHT22;27616;51.420;6.788;2023-07-31T11:30:45;18.10;99.90
41928;DHT22;27616;51.420;6.788;2023-07-31T11:33:13;18.10;99.90
41928;DHT22;27616;51.420;6.788;2023-07-31T11:35:47;18.20;99.90
41928;DHT22;27616;51.420;6.788;2023-07-31T11:38:31;18.20;99.90
41928;DHT22;27616;51.420;6.788;2023-07-31T11:40:59;18.20;99.90
41928;DHT22;27616;51.420;6.788;2023-07-31T11:43:26;18.30;99.90
41928;DHT22;27616;51.420;6.788;2023-07-31T11:45:57;18.30;99.90
41928;DHT22;27616;51.420;6.788;2023-07-31T11:48:27;18.30;99.90
41928;DHT22;27616;51.420;6.788;2023-07-31T11:50:54;18.30;99.90
41928;DHT22;27616;51.420;6.788;2023-07-31T11:55:54;18.20;99.90
41928;DHT22;27616;51.420;6.788;2023-07-31T11:58:21;18.10;99.90
41928;DHT22;27616;51.420;6.788;2023-07-31T12:00:48;18.00;99.90
41928;DHT22;27616;51.420;6.788;2023-07-31T12:03:15;18.00;99.90
41928;DHT22;27616;51.420;6.788;2023-07-31T12:05:40;17.90;99.90
41928;DHT22;27616;51.420;6.788;2023-07-31T12:08:11;17.90;99.90
41928;DHT22;27616;51.420;6.788;2023-07-31T12:10:38;17.90;99.90
41928;DHT22;27616;51.420;6.788;2023-07-31T12:13:09;17.90;99.90
41928;DHT22;27616;51.420;6.788;2023-07-31T12:15:43;17.90;99.90
41928;DHT22;27616;51.420;6.788;2023-07-31T12:18:19;17.90;99.90
41928;DHT22;27616;51.420;6.788;2023-07-31T12:20:54;17.90;99.90
41928;DHT22;27616;51.420;6.788;2023-07-31T12:23:23;18.00;99.90
41928;DHT22;27616;51.420;6.788;2023-07-31T12:28:45;18.10;99.90
41928;DHT22;27616;51.420;6.788;2023-07-31T12:31:15;18.20;99.90
41928;DHT22;27616;51.420;6.788;2023-07-31T12:33:42;18.20;99.90
41928;DHT22;27616;51.420;6.788;2023-07-31T12:36:16;18.30;99.90
41928;DHT22;27616;51.420;6.788;2023-07-31T12:38:42;18.50;99.90
41928;DHT22;27616;51.420;6.788;2023-07-31T12:41:08;18.50;99.90
41928;DHT22;27616;51.420;6.788;2023-07-31T12:43:37;18.60;99.90
41928;DHT22;27616;51.420;6.788;2023-07-31T12:46:04;18.60;99.90
41928;DHT22;27616;51.420;6.788;2023-07-31T12:48:29;18.50;99.90
41928;DHT22;27616;51.420;6.788;2023-07-31T12:50:55;18.50;99.90
41928;DHT22;27616;51.420;6.788;2023-07-31T12:53:21;18.40;99.90
41928;DHT22;27616;51.420;6.788;2023-07-31T12:55:47;18.50;99.90
41928;DHT22;27616;51.420;6.788;2023-07-31T12:58:12;18.50;99.90
41928;DHT22;27616;51.420;6.788;2023-07-31T13:00:38;18.40;99.90
41928;DHT22;27616;51.420;6.788;2023-07-31T13:03:03;18.30;99.90
41928;DHT22;27616;51.420;6.788;2023-07-31T13:05:29;18.30;99.90
41928;DHT22;27616;51.420;6.788;2023-07-31T13:07:55;18.30;99.90
41928;DHT22;27616;51.420;6.788;2023-07-31T13:10:22;18.40;99.90
41928;DHT22;27616;51.420;6.788;2023-07-31T13:12:48;18.40;99.90
41928;DHT22;27616;51.420;6.788;2023-07-31T13:15:13;18.50;99.90
41928;DHT22;27616;51.420;6.788;2023-07-31T13:17:39;18.50;99.90
41928;DHT22;27616;51.420;6.788;2023-07-31T13:20:05;18.60;99.90
41928;DHT22;27616;51.420;6.788;2023-07-31T13:22:31;18.70;99.90
41928;DHT22;27616;51.420;6.788;2023-07-31T13:24:56;18.70;99.90
41928;DHT22;27616;51.420;6.788;2023-07-31T13:27:22;18.70;99.90
41928;DHT22;27616;51.420;6.788;2023-07-31T13:29:49;18.70;99.90
41928;DHT22;27616;51.420;6.788;2023-07-31T13:32:16;18.70;99.90
41928;DHT22;27616;51.420;6.788;2023-07-31T13:34:42;18.70;99.90
41928;DHT22;27616;51.420;6.788;2023-07-31T13:37:08;18.70;99.90
41928;DHT22;27616;51.420;6.788;2023-07-31T13:39:33;18.70;99.90
41928;DHT22;27616;51.420;6.788;2023-07-31T13:42:00;18.70;99.90
41928;DHT22;27616;51.420;6.788;2023-07-31T13:44:26;18.70;99.90
41928;DHT22;27616;51.420;6.788;2023-07-31T13:46:52;18.80;99.90
41928;DHT22;27616;51.420;6.788;2023-07-31T13:49:17;18.80;99.90
41928;DHT22;27616;51.420;6.788;2023-07-31T13:51:43;18.80;99.90
41928;DHT22;27616;51.420;6.788;2023-07-31T13:54:08;18.80;99.90
41928;DHT22;27616;51.420;6.788;2023-07-31T13:56:34;18.90;99.90
41928;DHT22;27616;51.420;6.788;2023-07-31T13:59:00;18.90;99.90
41928;DHT22;27616;51.420;6.788;2023-07-31T14:01:26;19.00;99.90
41928;DHT22;27616;51.420;6.788;2023-07-31T14:03:52;19.10;99.90
41928;DHT22;27616;51.420;6.788;2023-07-31T14:06:18;19.20;99.90
41928;DHT22;27616;51.420;6.788;2023-07-31T14:08:44;19.20;99.90
41928;DHT22;27616;51.420;6.788;2023-07-31T14:11:10;19.30;99.90
41928;DHT22;27616;51.420;6.788;2023-07-31T14:13:35;19.30;99.90
41928;DHT22;27616;51.420;6.788;2023-07-31T14:16:01;19.40;99.90
41928;DHT22;27616;51.420;6.788;2023-07-31T14:18:26;19.40;99.90
41928;DHT22;27616;51.420;6.788;2023-07-31T14:20:52;19.40;99.90
41928;DHT22;27616;51.420;6.788;2023-07-31T14:23:18;19.50;99.90
41928;DHT22;27616;51.420;6.788;2023-07-31T14:25:45;19.40;99.90
41928;DHT22;27616;51.420;6.788;2023-07-31T14:28:11;19.40;99.90
41928;DHT22;27616;51.420;6.788;2023-07-31T14:30:36;19.30;99.90
41928;DHT22;27616;51.420;6.788;2023-07-31T14:33:02;19.40;99.90
41928;DHT22;27616;51.420;6.788;2023-07-31T14:35:28;19.30;99.90
41928;DHT22;27616;51.420;6.788;2023-07-31T14:37:54;19.30;99.90
41928;DHT22;27616;51.420;6.788;2023-07-31T14:40:19;19.30;99.90
41928;DHT22;27616;51.420;6.788;2023-07-31T14:42:45;19.30;99.90
41928;DHT22;27616;51.420;6.788;2023-07-31T14:45:11;19.30;99.90
41928;DHT22;27616;51.420;6.788;2023-07-31T14:47:37;19.20;99.90
41928;DHT22;27616;51.420;6.788;2023-07-31T14:50:03;19.20;99.90
41928;DHT22;27616;51.420;6.788;2023-07-31T14:52:29;19.00;99.90
41928;DHT22;27616;51.420;6.788;2023-07-31T14:54:54;19.00;99.90
41928;DHT22;27616;51.420;6.788;2023-07-31T14:57:20;18.90;99.90
41928;DHT22;27616;51.420;6.788;2023-07-31T14:59:47;18.90;99.90
41928;DHT22;27616;51.420;6.788;2023-07-31T15:02:12;18.90;99.90
41928;DHT22;27616;51.420;6.788;2023-07-31T15:04:38;18.90;99.90
41928;DHT22;27616;51.420;6.788;2023-07-31T15:07:04;18.90;99.90
41928;DHT22;27616;51.420;6.788;2023-07-31T15:09:30;18.90;99.90
41928;DHT22;27616;51.420;6.788;2023-07-31T15:11:56;18.90;99.90
41928;DHT22;27616;51.420;6.788;2023-07-31T15:14:22;18.90;99.90
41928;DHT22;27616;51.420;6.788;2023-07-31T15:16:48;19.00;99.90
41928;DHT22;27616;51.420;6.788;2023-07-31T15:19:14;19.00;99.90
41928;DHT22;27616;51.420;6.788;2023-07-31T15:21:40;19.00;99.90
41928;DHT22;27616;51.420;6.788;2023-07-31T15:24:05;19.00;99.90
41928;DHT22;27616;51.420;6.788;2023-07-31T15:26:31;19.10;99.90
41928;DHT22;27616;51.420;6.788;2023-07-31T15:29:02;19.10;99.90
41928;DHT22;27616;51.420;6.788;2023-07-31T15:31:31;19.20;99.90
41928;DHT22;27616;51.420;6.788;2023-07-31T15:33:57;19.20;99.90
41928;DHT22;27616;51.420;6.788;2023-07-31T15:36:22;19.30;99.90
41928;DHT22;27616;51.420;6.788;2023-07-31T15:38:48;19.30;99.90
41928;DHT22;27616;51.420;6.788;2023-07-31T15:41:17;19.30;99.90
41928;DHT22;27616;51.420;6.788;2023-07-31T15:43:42;19.30;99.90
41928;DHT22;27616;51.420;6.788;2023-07-31T15:46:08;19.40;99.90
41928;DHT22;27616;51.420;6.788;2023-07-31T15:48:34;19.40;99.90
41928;DHT22;27616;51.420;6.788;2023-07-31T15:50:59;19.40;99.90
41928;DHT22;27616;51.420;6.788;2023-07-31T15:53:26;19.40;99.90
41928;DHT22;27616;51.420;6.788;2023-07-31T15:55:52;19.40;99.90